Time;durP1;ratioP1;P1;durP2;ratioP2;P2;SDS_P1;SDS_P2;PMS_P1;PMS_P2;Temp;Humidity;BMP_temperature;BMP_pressure;BME280_temperature;BME280_humidity;BME280_pressure;Samples;Min_cycle;Max_cycle;Signal;HPM_P1;HPM_P2
2022/10/28 00:01:10;;;;;;;1.55;0.85;;;13.50;99.90;;;;;;5035371;28;20118;-75
2022/10/28 00:03:38;;;;;;;1.90;0.82;;;13.50;99.90;;;;;;5042822;28;20052;-74
2022/10/28 00:06:06;;;;;;;1.08;0.60;;;13.50;99.90;;;;;;5054687;28;20036;-73
2022/10/28 00:08:32;;;;;;;0.20;0.17;;;13.60;99.90;;;;;;5054668;28;20041;-73
2022/10/28 00:11:08;;;;;;;0.80;0.80;;;13.70;99.90;;;;;;5046231;28;20049;-73
2022/10/28 00:13:35;;;;;;;0.55;0.45;;;13.80;99.90;;;;;;5043331;28;20099;-75
2022/10/28 00:16:19;;;;;;;0.77;0.77;;;13.90;99.90;;;;;;5055459;28;20404;-75
2022/10/28 00:18:46;;;;;;;2.28;0.82;;;14.00;99.90;;;;;;5055920;28;20056;-75
2022/10/28 00:21:15;;;;;;;0.88;0.40;;;14.10;99.90;;;;;;5055734;28;20043;-74
2022/10/28 00:23:41;;;;;;;0.82;0.77;;;14.10;99.90;;;;;;5047171;28;20125;-74
2022/10/28 00:26:10;;;;;;;1.65;0.68;;;14.20;99.90;;;;;;5036279;28;20080;-73
2022/10/28 00:28:40;;;;;;;0.68;0.65;;;14.60;99.90;;;;;;5035125;28;20056;-73
2022/10/28 00:31:07;;;;;;;1.35;0.93;;;14.20;99.90;;;;;;5035424;28;20045;-74
2022/10/28 00:33:33;;;;;;;0.77;0.75;;;14.40;99.90;;;;;;5041447;28;20053;-73
2022/10/28 00:36:08;;;;;;;0.85;0.65;;;14.30;99.90;;;;;;5055439;28;20055;-74
2022/10/28 00:38:34;;;;;;;0.90;0.57;;;14.30;99.90;;;;;;5055898;28;20056;-73
2022/10/28 00:40:59;;;;;;;0.47;0.38;;;14.20;99.90;;;;;;5055589;28;20065;-73
2022/10/28 00:43:42;;;;;;;1.00;0.65;;;14.20;99.90;;;;;;5049775;28;20099;-74
2022/10/28 00:46:34;;;;;;;1.30;0.70;;;14.20;99.90;;;;;;5046057;28;20041;-74
2022/10/28 00:49:15;;;;;;;1.73;0.75;;;14.20;99.90;;;;;;5055913;28;20041;-73
2022/10/28 00:51:43;;;;;;;4.03;2.92;;;14.30;99.90;;;;;;5057959;28;20083;-74
2022/10/28 00:54:10;;;;;;;0.63;0.60;;;14.30;99.90;;;;;;5054241;28;20056;-72
2022/10/28 00:56:41;;;;;;;0.68;0.68;;;14.30;99.90;;;;;;5049666;28;20049;-73
2022/10/28 00:59:32;;;;;;;1.85;0.68;;;14.30;99.90;;;;;;5018893;28;20130;-73
2022/10/28 01:01:58;;;;;;;0.20;0.20;;;14.30;99.90;;;;;;5036181;28;20085;-73
2022/10/28 01:04:24;;;;;;;2.03;1.05;;;14.20;99.90;;;;;;5049364;28;20503;-75
2022/10/28 01:06:51;;;;;;;0.10;0.10;;;14.20;99.90;;;;;;5056983;28;20056;-74
2022/10/28 01:09:16;;;;;;;1.23;1.10;;;14.10;99.90;;;;;;5040006;28;20052;-74
2022/10/28 01:12:10;;;;;;;2.83;0.63;;;14.10;99.90;;;;;;5055558;28;20421;-73
2022/10/28 01:15:04;;;;;;;0.63;0.40;;;14.10;99.90;;;;;;5040887;28;20049;-72
2022/10/28 01:17:55;;;;;;;1.00;0.82;;;14.10;99.90;;;;;;5036129;28;20050;-73
2022/10/28 01:21:06;;;;;;;0.90;0.85;;;14.10;99.90;;;;;;5034667;28;20145;-72
2022/10/28 01:23:58;;;;;;;0.20;0.17;;;14.20;99.90;;;;;;5033593;28;20046;-74
2022/10/28 01:26:52;;;;;;;0.50;0.50;;;14.10;99.90;;;;;;5036123;28;20423;-74
2022/10/28 01:29:55;;;;;;;1.17;0.63;;;14.00;99.90;;;;;;5017876;28;20053;-73
2022/10/28 01:32:35;;;;;;;0.63;0.63;;;13.90;99.90;;;;;;5034895;28;20045;-73
2022/10/28 01:35:20;;;;;;;0.25;0.25;;;14.00;99.90;;;;;;5036622;28;20069;-72
2022/10/28 01:37:49;;;;;;;0.22;0.22;;;14.00;99.90;;;;;;5033285;28;20063;-73
2022/10/28 01:40:21;;;;;;;2.20;1.35;;;14.00;99.90;;;;;;5036471;28;20049;-74
2022/10/28 01:43:03;;;;;;;0.28;0.17;;;14.00;99.90;;;;;;5051869;28;20080;-73
2022/10/28 01:45:59;;;;;;;0.68;0.57;;;14.00;99.90;;;;;;5048439;28;20071;-74
2022/10/28 01:48:57;;;;;;;0.30;0.30;;;13.90;99.90;;;;;;5055029;28;20041;-73
2022/10/28 01:51:34;;;;;;;1.17;0.95;;;14.00;99.90;;;;;;5038248;28;20080;-74
2022/10/28 01:54:05;;;;;;;2.35;1.35;;;14.00;99.90;;;;;;5055784;28;20071;-74
2022/10/28 01:56:39;;;;;;;1.55;1.08;;;13.90;99.90;;;;;;5055365;28;20072;-74
2022/10/28 01:59:08;;;;;;;0.90;0.80;;;13.80;99.90;;;;;;5056992;28;20045;-75
2022/10/28 02:01:35;;;;;;;2.85;1.25;;;14.30;99.90;;;;;;5053281;28;20049;-73
2022/10/28 02:04:01;;;;;;;0.77;0.77;;;13.80;99.90;;;;;;5043481;28;20061;-73
2022/10/28 02:06:30;;;;;;;0.35;0.35;;;13.90;99.90;;;;;;5034912;28;20045;-72
2022/10/28 02:09:20;;;;;;;1.35;0.75;;;13.90;99.90;;;;;;5036140;28;20116;-74
2022/10/28 02:12:11;;;;;;;1.25;1.15;;;13.90;99.90;;;;;;5044027;28;20134;-73
2022/10/28 02:14:57;;;;;;;0.55;0.52;;;14.00;99.90;;;;;;5041100;28;20053;-74
2022/10/28 02:17:44;;;;;;;1.95;1.10;;;13.90;99.90;;;;;;5037524;28;20080;-74
2022/10/28 02:20:58;;;;;;;1.52;1.25;;;13.80;99.90;;;;;;5034403;28;20077;-75
2022/10/28 02:23:29;;;;;;;0.98;0.40;;;13.60;99.90;;;;;;4973601;28;20576;-74
2022/10/28 02:26:15;;;;;;;0.75;0.45;;;13.60;99.90;;;;;;5013094;28;20057;-74
2022/10/28 02:29:13;;;;;;;0.65;0.45;;;13.50;99.90;;;;;;5036012;28;20056;-74
2022/10/28 02:31:51;;;;;;;0.52;0.50;;;13.40;99.90;;;;;;5036782;28;20045;-74
2022/10/28 02:34:22;;;;;;;2.58;1.08;;;13.40;99.90;;;;;;5030808;28;20057;-74
2022/10/28 02:36:52;;;;;;;7.50;1.67;;;13.30;99.90;;;;;;5054525;28;20404;-72
2022/10/28 02:39:25;;;;;;;0.20;0.20;;;13.20;99.90;;;;;;5054073;28;20052;-73
2022/10/28 02:42:01;;;;;;;1.40;0.95;;;13.20;99.90;;;;;;5053934;28;20052;-74
2022/10/28 02:44:34;;;;;;;0.15;0.15;;;13.00;99.90;;;;;;5037579;28;20083;-75
2022/10/28 02:47:11;;;;;;;0.38;0.38;;;12.90;99.90;;;;;;5037354;28;20063;-74
2022/10/28 02:49:40;;;;;;;0.00;0.00;;;12.90;99.90;;;;;;5055016;28;20446;-72
2022/10/28 02:52:06;;;;;;;2.33;0.45;;;12.60;99.90;;;;;;5054339;28;20067;-75
2022/10/28 02:54:41;;;;;;;1.98;0.15;;;13.60;99.90;;;;;;5034881;28;20041;-74
2022/10/28 02:57:14;;;;;;;0.20;0.20;;;12.40;99.90;;;;;;5034174;28;20047;-74
2022/10/28 02:59:40;;;;;;;0.55;0.40;;;12.30;99.90;;;;;;5034024;28;20102;-74
2022/10/28 03:02:07;;;;;;;3.35;1.00;;;12.30;99.90;;;;;;5046140;28;20488;-73
2022/10/28 03:04:32;;;;;;;0.28;0.28;;;12.20;99.90;;;;;;5034219;28;20188;-73
2022/10/28 03:06:58;;;;;;;2.28;1.83;;;12.10;99.90;;;;;;5033415;28;20092;-73
2022/10/28 03:09:23;;;;;;;1.13;0.93;;;12.10;99.90;;;;;;5033576;28;20042;-74
2022/10/28 03:11:49;;;;;;;2.25;1.40;;;12.00;99.90;;;;;;5035477;28;20084;-73
2022/10/28 03:14:15;;;;;;;2.47;1.35;;;12.10;99.90;;;;;;5052881;28;20131;-73
2022/10/28 03:16:40;;;;;;;0.30;0.30;;;12.00;99.90;;;;;;5053020;28;20223;-74
2022/10/28 03:19:06;;;;;;;0.90;0.82;;;12.00;99.90;;;;;;5053198;28;20068;-73
2022/10/28 03:21:32;;;;;;;0.22;0.22;;;11.90;99.90;;;;;;5052779;28;20049;-73
2022/10/28 03:23:57;;;;;;;0.65;0.65;;;11.80;99.90;;;;;;5051535;28;20044;-74
2022/10/28 03:26:23;;;;;;;1.75;1.58;;;11.90;99.90;;;;;;5052483;28;20037;-74
2022/10/28 03:28:49;;;;;;;5.82;1.70;;;11.90;99.90;;;;;;5051789;28;20503;-73
2022/10/28 03:31:15;;;;;;;0.20;0.20;;;11.80;99.90;;;;;;5045138;28;20044;-73
2022/10/28 03:33:41;;;;;;;0.03;0.03;;;11.70;99.90;;;;;;5025183;28;20045;-72
2022/10/28 03:36:07;;;;;;;0.73;0.70;;;11.70;99.90;;;;;;5015170;28;20044;-74
2022/10/28 03:38:32;;;;;;;0.85;0.70;;;11.60;99.90;;;;;;5015136;28;20136;-74
2022/10/28 03:40:58;;;;;;;10.93;2.20;;;11.60;99.90;;;;;;5031337;28;20053;-74
2022/10/28 03:43:24;;;;;;;1.05;0.82;;;11.60;99.90;;;;;;5031667;28;20095;-74
2022/10/28 03:45:49;;;;;;;4.18;1.55;;;11.60;99.90;;;;;;5045384;28;20045;-73
2022/10/28 03:48:15;;;;;;;6.40;1.77;;;11.60;99.90;;;;;;5038294;28;20045;-74
2022/10/28 03:50:40;;;;;;;1.10;0.60;;;11.60;99.90;;;;;;5031015;28;20054;-74
2022/10/28 03:53:06;;;;;;;1.80;1.05;;;11.60;99.90;;;;;;5038190;28;20114;-74
2022/10/28 03:55:31;;;;;;;1.27;1.17;;;11.60;99.90;;;;;;5050865;28;20045;-73
2022/10/28 03:58:00;;;;;;;1.02;0.95;;;11.50;99.90;;;;;;5046464;28;20045;-73
2022/10/28 04:00:26;;;;;;;0.10;0.10;;;11.40;99.90;;;;;;5049288;28;20602;-74
2022/10/28 04:02:52;;;;;;;3.30;0.57;;;11.40;99.90;;;;;;5049670;28;20174;-73
2022/10/28 04:05:19;;;;;;;0.47;0.40;;;11.30;99.90;;;;;;5049663;28;20044;-73
2022/10/28 04:07:45;;;;;;;0.73;0.55;;;11.30;99.90;;;;;;5030585;28;20573;-74
2022/10/28 04:10:12;;;;;;;0.45;0.40;;;11.40;99.90;;;;;;5049572;28;20091;-75
2022/10/28 04:12:38;;;;;;;3.63;1.10;;;11.50;99.90;;;;;;5049939;28;20423;-74
2022/10/28 04:15:05;;;;;;;0.70;0.63;;;11.40;99.90;;;;;;5032510;28;20505;-73
2022/10/28 04:17:33;;;;;;;1.63;1.52;;;11.40;99.90;;;;;;5044919;28;20045;-74
2022/10/28 04:19:58;;;;;;;0.47;0.47;;;11.40;99.90;;;;;;5033723;28;20057;-73
2022/10/28 04:22:24;;;;;;;0.85;0.77;;;11.40;99.90;;;;;;5049921;28;20098;-74
2022/10/28 04:24:51;;;;;;;0.65;0.65;;;11.40;99.90;;;;;;5032102;28;20346;-73
2022/10/28 04:27:17;;;;;;;0.47;0.47;;;11.40;99.90;;;;;;5033211;28;20041;-74
2022/10/28 04:29:42;;;;;;;0.50;0.25;;;11.40;99.90;;;;;;5050680;28;20423;-75
2022/10/28 04:32:09;;;;;;;0.40;0.40;;;11.40;99.90;;;;;;5050591;28;20075;-75
2022/10/28 04:34:34;;;;;;;0.47;0.30;;;11.30;99.90;;;;;;5036939;28;20550;-74
2022/10/28 04:37:00;;;;;;;2.83;1.65;;;11.40;99.90;;;;;;5034450;28;20533;-73
2022/10/28 04:39:25;;;;;;;2.50;1.52;;;11.30;99.90;;;;;;5050924;28;20517;-73
2022/10/28 04:41:51;;;;;;;0.77;0.73;;;11.40;99.90;;;;;;5050199;28;20057;-74
2022/10/28 04:44:17;;;;;;;5.57;1.52;;;11.40;99.90;;;;;;5049996;28;20473;-74
2022/10/28 04:46:43;;;;;;;3.30;0.88;;;11.50;99.90;;;;;;5050510;28;20131;-75
2022/10/28 04:49:08;;;;;;;0.47;0.38;;;11.60;99.90;;;;;;5051292;28;20045;-74
2022/10/28 04:51:34;;;;;;;0.52;0.52;;;11.60;99.90;;;;;;5049480;28;20080;-73
2022/10/28 04:54:00;;;;;;;0.17;0.13;;;11.60;99.90;;;;;;5041532;28;20041;-73
2022/10/28 04:56:25;;;;;;;0.57;0.38;;;11.50;99.90;;;;;;5030317;28;20084;-74
2022/10/28 04:58:51;;;;;;;0.47;0.40;;;11.50;99.90;;;;;;5029640;28;20068;-75
2022/10/28 05:01:17;;;;;;;1.55;0.90;;;11.40;99.90;;;;;;5029446;28;20049;-73
2022/10/28 05:03:42;;;;;;;0.30;0.30;;;11.30;99.90;;;;;;5012338;28;20049;-74
2022/10/28 05:06:08;;;;;;;0.30;0.30;;;11.20;99.90;;;;;;5027416;28;20049;-73
2022/10/28 05:08:33;;;;;;;1.38;1.27;;;11.40;99.90;;;;;;5027228;28;20072;-73
2022/10/28 05:10:59;;;;;;;5.28;2.65;;;11.40;99.90;;;;;;5029464;28;20045;-73
2022/10/28 05:13:25;;;;;;;0.20;0.13;;;11.40;99.90;;;;;;5042795;28;20045;-72
2022/10/28 05:15:50;;;;;;;3.45;1.67;;;11.30;99.90;;;;;;5027287;28;20483;-75
2022/10/28 05:18:16;;;;;;;8.93;1.45;;;11.20;99.90;;;;;;5027044;28;20077;-74
2022/10/28 05:20:43;;;;;;;1.73;0.65;;;11.60;99.90;;;;;;5026566;28;20053;-72
2022/10/28 05:23:09;;;;;;;3.03;1.65;;;11.10;99.90;;;;;;5039463;28;20407;-72
2022/10/28 05:25:34;;;;;;;0.20;0.20;;;11.20;99.90;;;;;;5021260;28;20064;-73
2022/10/28 05:28:00;;;;;;;0.20;0.20;;;10.90;99.90;;;;;;5027092;28;20053;-73
2022/10/28 05:30:27;;;;;;;0.30;0.22;;;10.80;99.90;;;;;;5026257;28;20080;-74
2022/10/28 05:33:00;;;;;;;0.00;0.00;;;10.80;99.90;;;;;;5028932;28;20071;-74
2022/10/28 05:35:26;;;;;;;0.20;0.20;;;10.70;99.90;;;;;;5020766;28;20099;-74
2022/10/28 05:37:52;;;;;;;1.25;0.75;;;10.60;99.90;;;;;;5011359;28;20057;-73
2022/10/28 05:40:17;;;;;;;0.00;0.00;;;10.50;99.90;;;;;;5032520;28;20045;-74
2022/10/28 05:42:43;;;;;;;0.03;0.03;;;10.50;99.90;;;;;;5042988;28;20091;-72
2022/10/28 05:45:10;;;;;;;0.75;0.40;;;10.60;99.90;;;;;;5028130;28;20492;-72
2022/10/28 05:47:40;;;;;;;1.25;1.02;;;10.90;99.90;;;;;;5027708;28;20042;-74
2022/10/28 05:50:06;;;;;;;0.68;0.43;;;10.90;99.90;;;;;;5010591;28;20600;-73
2022/10/28 05:52:32;;;;;;;0.93;0.35;;;10.90;99.90;;;;;;5024837;28;20045;-74
2022/10/28 05:54:57;;;;;;;0.38;0.30;;;10.80;99.90;;;;;;5027446;28;20447;-72
2022/10/28 05:57:23;;;;;;;4.22;1.33;;;11.00;99.90;;;;;;5029318;28;20052;-73
2022/10/28 05:59:49;;;;;;;0.50;0.40;;;11.00;99.90;;;;;;5047418;28;20040;-72
2022/10/28 06:02:15;;;;;;;1.13;0.88;;;10.90;99.90;;;;;;5049354;28;20045;-74
2022/10/28 06:04:41;;;;;;;1.85;1.40;;;10.90;99.90;;;;;;5050998;28;20053;-73
2022/10/28 06:07:07;;;;;;;3.60;1.80;;;10.80;99.90;;;;;;5051074;28;20076;-74
2022/10/28 06:09:32;;;;;;;0.20;0.20;;;10.80;99.90;;;;;;5052013;28;20049;-73
2022/10/28 06:11:58;;;;;;;0.15;0.15;;;11.00;99.90;;;;;;5050904;28;20044;-72
2022/10/28 06:14:31;;;;;;;1.73;1.30;;;11.10;99.90;;;;;;5051455;28;20049;-73
2022/10/28 06:16:57;;;;;;;0.80;0.68;;;11.80;99.90;;;;;;5050521;28;20044;-75
2022/10/28 06:19:23;;;;;;;0.40;0.30;;;11.50;99.90;;;;;;5050302;28;20068;-74
2022/10/28 06:21:48;;;;;;;2.42;1.08;;;11.60;99.90;;;;;;5050183;28;20076;-74
2022/10/28 06:24:14;;;;;;;1.23;1.13;;;11.70;99.90;;;;;;5049671;28;20075;-74
2022/10/28 06:26:40;;;;;;;1.35;0.93;;;11.90;99.90;;;;;;5050344;28;20043;-74
2022/10/28 06:29:05;;;;;;;2.35;0.98;;;12.00;99.90;;;;;;5049015;28;20466;-74
2022/10/28 06:31:32;;;;;;;0.68;0.68;;;12.10;99.90;;;;;;5047951;28;20049;-73
2022/10/28 06:33:57;;;;;;;4.28;2.42;;;12.10;99.90;;;;;;5048280;28;20055;-74
2022/10/28 06:36:23;;;;;;;0.57;0.52;;;12.20;99.90;;;;;;5050426;28;20076;-74
2022/10/28 06:38:51;;;;;;;2.03;1.55;;;12.30;99.90;;;;;;5048561;28;20083;-72
2022/10/28 06:41:17;;;;;;;3.13;1.00;;;12.40;99.90;;;;;;5049820;28;20071;-74
2022/10/28 06:43:42;;;;;;;1.23;0.63;;;12.50;99.90;;;;;;5050012;28;20554;-73
2022/10/28 06:46:08;;;;;;;0.32;0.20;;;12.50;99.90;;;;;;5047604;28;20414;-73
2022/10/28 06:48:34;;;;;;;0.30;0.30;;;12.60;99.90;;;;;;5047656;28;20096;-72
2022/10/28 06:50:59;;;;;;;3.20;2.20;;;12.60;99.90;;;;;;5030863;28;20053;-72
2022/10/28 06:53:25;;;;;;;0.80;0.63;;;12.70;99.90;;;;;;5047875;28;20041;-73
2022/10/28 06:55:52;;;;;;;5.07;1.77;;;12.70;99.90;;;;;;5048403;28;20105;-73
2022/10/28 06:58:18;;;;;;;0.32;0.25;;;12.70;99.90;;;;;;5049171;28;20053;-74
2022/10/28 07:00:43;;;;;;;1.23;1.05;;;12.70;99.90;;;;;;5050680;28;20586;-71
2022/10/28 07:03:10;;;;;;;5.93;2.67;;;12.80;99.90;;;;;;5047774;28;20055;-73
2022/10/28 07:05:35;;;;;;;0.70;0.52;;;12.90;99.90;;;;;;5048595;28;20506;-74
2022/10/28 07:08:01;;;;;;;5.70;2.47;;;13.00;99.90;;;;;;5048661;28;20037;-74
2022/10/28 07:10:27;;;;;;;2.28;1.90;;;13.00;99.90;;;;;;5047534;28;20597;-75
2022/10/28 07:12:52;;;;;;;0.77;0.68;;;13.10;99.90;;;;;;5050202;28;20120;-74
2022/10/28 07:15:18;;;;;;;1.00;0.68;;;13.10;99.90;;;;;;5032326;28;20527;-73
2022/10/28 07:17:43;;;;;;;0.80;0.77;;;13.10;99.90;;;;;;5047811;28;20052;-72
2022/10/28 07:20:09;;;;;;;0.98;0.88;;;13.10;99.90;;;;;;5048792;28;20466;-74
2022/10/28 07:22:35;;;;;;;2.97;2.40;;;13.20;99.90;;;;;;5034142;28;20442;-74
2022/10/28 07:25:01;;;;;;;6.50;1.92;;;13.30;99.90;;;;;;5050039;28;20045;-74
2022/10/28 07:27:26;;;;;;;4.35;1.13;;;13.30;99.90;;;;;;5050700;28;20045;-73
2022/10/28 07:29:52;;;;;;;0.85;0.68;;;13.40;99.90;;;;;;5052007;28;20439;-73
2022/10/28 07:32:17;;;;;;;1.70;0.95;;;13.50;99.90;;;;;;5050395;28;20041;-74
2022/10/28 07:34:43;;;;;;;1.63;0.98;;;13.50;99.90;;;;;;5052075;28;20045;-75
2022/10/28 07:37:11;;;;;;;0.40;0.40;;;13.60;99.90;;;;;;5052295;28;20138;-74
2022/10/28 07:39:37;;;;;;;7.88;2.05;;;13.60;99.90;;;;;;5052473;28;20060;-74
2022/10/28 07:42:03;;;;;;;1.00;0.93;;;13.60;99.90;;;;;;5053787;28;20060;-74
2022/10/28 07:44:28;;;;;;;0.30;0.30;;;13.70;99.90;;;;;;5053211;28;20056;-73
2022/10/28 07:46:54;;;;;;;0.88;0.80;;;13.80;99.90;;;;;;5053852;28;20099;-75
2022/10/28 07:49:19;;;;;;;0.50;0.50;;;13.90;99.90;;;;;;5051968;28;20080;-73
2022/10/28 07:51:46;;;;;;;4.75;2.28;;;13.90;99.90;;;;;;5053348;28;20045;-75
2022/10/28 07:54:12;;;;;;;0.60;0.47;;;14.00;99.90;;;;;;5054845;28;20049;-75
2022/10/28 07:56:37;;;;;;;1.27;0.73;;;14.10;99.90;;;;;;5056183;28;20073;-75
2022/10/28 07:59:03;;;;;;;1.17;0.77;;;14.20;99.90;;;;;;5056377;28;20119;-74
2022/10/28 08:01:28;;;;;;;1.13;1.00;;;14.20;99.90;;;;;;5058890;28;20048;-74
2022/10/28 08:03:54;;;;;;;1.05;0.95;;;14.30;99.90;;;;;;5060717;28;20032;-75
2022/10/28 08:06:20;;;;;;;3.38;1.10;;;14.40;99.90;;;;;;5060908;28;20127;-74
2022/10/28 08:08:47;;;;;;;0.52;0.43;;;14.40;99.90;;;;;;5056678;28;20085;-72
2022/10/28 08:11:18;;;;;;;1.13;0.77;;;14.50;99.90;;;;;;5059336;28;20045;-73
2022/10/28 08:13:45;;;;;;;0.52;0.52;;;14.60;99.90;;;;;;5055563;28;20072;-74
2022/10/28 08:16:11;;;;;;;1.27;1.10;;;14.60;99.90;;;;;;5055751;28;20365;-74
2022/10/28 08:18:37;;;;;;;1.10;0.90;;;14.70;99.90;;;;;;5060414;28;20048;-75
2022/10/28 08:21:05;;;;;;;2.33;0.95;;;14.70;99.90;;;;;;5061842;28;20049;-73
2022/10/28 08:23:31;;;;;;;0.95;0.95;;;14.80;99.90;;;;;;5061482;28;20048;-74
2022/10/28 08:25:57;;;;;;;4.07;0.57;;;14.80;99.90;;;;;;5062462;28;20053;-74
2022/10/28 08:28:23;;;;;;;1.25;0.65;;;15.10;99.90;;;;;;5061970;28;20036;-72
2022/10/28 08:30:49;;;;;;;1.90;0.68;;;14.90;99.90;;;;;;5063189;28;20504;-74
2022/10/28 08:33:15;;;;;;;3.42;1.08;;;15.00;99.90;;;;;;5063271;28;20043;-74
2022/10/28 08:35:41;;;;;;;1.25;0.45;;;15.10;99.90;;;;;;5062570;28;20049;-73
2022/10/28 08:38:07;;;;;;;2.60;2.30;;;15.20;99.90;;;;;;5062505;28;20041;-74
2022/10/28 08:41:04;;;;;;;0.65;0.65;;;15.30;99.90;;;;;;5061740;28;20095;-73
2022/10/28 08:43:41;;;;;;;0.35;0.35;;;15.50;99.90;;;;;;5060525;28;20053;-74
2022/10/28 08:46:45;;;;;;;5.07;2.45;;;15.60;99.90;;;;;;5060779;28;20045;-73
2022/10/28 08:49:15;;;;;;;2.88;0.88;;;15.80;99.90;;;;;;5062634;28;20060;-74
2022/10/28 08:52:04;;;;;;;0.77;0.73;;;16.10;99.90;;;;;;5061957;28;20040;-75
2022/10/28 08:54:49;;;;;;;0.75;0.57;;;16.20;99.90;;;;;;5061112;28;20041;-74
2022/10/28 08:57:35;;;;;;;1.88;0.57;;;16.50;99.90;;;;;;5060596;28;20063;-74
2022/10/28 09:00:03;;;;;;;0.63;0.60;;;16.60;99.90;;;;;;5061274;28;20108;-74
2022/10/28 09:02:43;;;;;;;7.88;1.15;;;16.70;99.90;;;;;;5059890;28;20044;-73
2022/10/28 09:05:21;;;;;;;9.23;1.10;;;16.90;99.90;;;;;;5060428;28;20056;-74
2022/10/28 09:07:47;;;;;;;0.88;0.80;;;17.20;99.90;;;;;;5061581;28;20056;-73
2022/10/28 09:10:14;;;;;;;0.65;0.65;;;17.30;99.90;;;;;;5061265;28;20045;-75
2022/10/28 09:12:42;;;;;;;0.93;0.50;;;17.30;99.90;;;;;;5061100;28;20048;-74
2022/10/28 09:15:33;;;;;;;0.65;0.30;;;17.40;99.90;;;;;;5062059;28;20051;-73
2022/10/28 09:18:18;;;;;;;2.35;1.30;;;17.60;99.90;;;;;;5062144;28;20048;-74
2022/10/28 09:20:52;;;;;;;2.33;1.50;;;17.60;99.90;;;;;;5062343;28;20053;-75
2022/10/28 09:23:38;;;;;;;0.77;0.63;;;17.90;76.20;;;;;;5061363;28;20055;-74
2022/10/28 09:26:13;;;;;;;3.97;1.38;;;17.80;34.90;;;;;;5062780;28;20047;-75
2022/10/28 09:28:55;;;;;;;2.28;1.23;;;17.90;1.00;;;;;;5062179;28;20045;-74
2022/10/28 09:31:52;;;;;;;2.90;1.60;;;18.00;1.00;;;;;;5062160;28;20045;-75
2022/10/28 09:34:39;;;;;;;4.72;1.30;;;18.00;1.00;;;;;;5062872;28;20037;-74
2022/10/28 09:37:21;;;;;;;0.40;0.40;;;18.10;1.00;;;;;;5061944;28;20048;-75
2022/10/28 09:39:51;;;;;;;2.45;1.45;;;18.20;1.00;;;;;;5061812;28;20052;-75
2022/10/28 09:42:31;;;;;;;0.60;0.43;;;18.20;99.90;;;;;;5062751;28;20053;-73
2022/10/28 09:45:20;;;;;;;3.03;1.58;;;18.20;1.00;;;;;;5060365;28;20103;-72
2022/10/28 09:47:57;;;;;;;1.90;1.15;;;18.30;99.90;;;;;;5043135;28;20088;-74
2022/10/28 09:50:27;;;;;;;0.28;0.28;;;18.30;99.90;;;;;;5061905;28;20076;-75
2022/10/28 09:53:22;;;;;;;1.02;0.77;;;18.30;1.00;;;;;;5063046;28;20040;-74
2022/10/28 09:55:49;;;;;;;1.85;0.80;;;18.40;99.90;;;;;;5060785;28;20047;-73
2022/10/28 09:58:16;;;;;;;1.05;0.38;;;18.50;1.00;;;;;;5043923;28;20124;-75
2022/10/28 10:00:41;;;;;;;0.22;0.22;;;18.50;99.90;;;;;;5063282;28;20041;-75
2022/10/28 10:03:07;;;;;;;0.63;0.63;;;18.50;99.90;;;;;;5062653;28;20192;-75
2022/10/28 10:05:39;;;;;;;1.92;1.67;;;18.50;99.90;;;;;;5063695;28;20108;-75
2022/10/28 10:08:06;;;;;;;0.95;0.85;;;18.50;99.90;;;;;;5062057;28;20025;-74
2022/10/28 10:10:54;;;;;;;1.88;0.88;;;18.60;99.90;;;;;;5062496;28;20056;-75
2022/10/28 10:13:28;;;;;;;6.72;1.85;;;18.60;99.90;;;;;;5062945;28;20048;-74
2022/10/28 10:15:58;;;;;;;2.10;1.27;;;18.60;99.90;;;;;;5061681;28;20600;-74
2022/10/28 10:18:28;;;;;;;5.25;2.10;;;18.70;99.90;;;;;;5062525;28;20045;-74
2022/10/28 10:20:57;;;;;;;0.43;0.43;;;18.70;97.50;;;;;;5063101;28;20063;-73
2022/10/28 10:23:27;;;;;;;0.30;0.30;;;18.90;99.90;;;;;;5062663;28;20044;-74
2022/10/28 10:26:11;;;;;;;1.15;0.68;;;18.70;99.90;;;;;;5061764;28;20175;-75
2022/10/28 10:28:46;;;;;;;1.27;0.70;;;18.80;99.90;;;;;;5062775;28;20043;-75
2022/10/28 10:31:38;;;;;;;4.25;1.70;;;18.90;99.90;;;;;;5061384;28;20109;-74
2022/10/28 10:34:04;;;;;;;2.63;1.55;;;18.90;99.90;;;;;;5057609;28;20056;-75
2022/10/28 10:36:30;;;;;;;1.33;0.55;;;19.00;99.90;;;;;;5040835;28;20075;-75
2022/10/28 10:38:58;;;;;;;1.60;1.17;;;19.10;99.90;;;;;;5058875;28;20446;-76
2022/10/28 10:41:35;;;;;;;1.50;1.40;;;19.10;99.90;;;;;;5058605;28;20045;-73
2022/10/28 10:44:21;;;;;;;0.93;0.50;;;19.20;26.60;;;;;;5058352;28;20073;-75
2022/10/28 10:47:10;;;;;;;1.00;0.47;;;19.30;83.40;;;;;;5057923;28;20100;-73
2022/10/28 10:49:36;;;;;;;6.22;2.15;;;19.40;99.90;;;;;;5037964;28;20123;-75
2022/10/28 10:52:21;;;;;;;0.57;0.55;;;19.60;1.00;;;;;;5058806;28;20036;-76
2022/10/28 10:55:17;;;;;;;1.13;0.80;;;19.60;1.00;;;;;;5058488;28;20033;-74
2022/10/28 10:57:46;;;;;;;0.60;0.60;;;19.70;99.90;;;;;;5058744;28;20076;-74
2022/10/28 11:00:17;;;;;;;0.88;0.43;;;19.70;99.90;;;;;;5058421;28;20047;-75
2022/10/28 11:02:46;;;;;;;2.22;1.70;;;19.80;21.90;;;;;;5058445;28;20045;-75
2022/10/28 11:05:20;;;;;;;0.88;0.45;;;20.00;99.90;;;;;;5063128;28;20076;-75
2022/10/28 11:07:49;;;;;;;2.20;0.75;;;20.00;1.00;;;;;;5059515;28;20063;-74
2022/10/28 11:10:29;;;;;;;2.35;1.55;;;20.00;99.90;;;;;;5061608;28;20076;-73
2022/10/28 11:12:57;;;;;;;2.90;1.27;;;20.20;99.90;;;;;;5041946;28;20036;-75
2022/10/28 11:15:28;;;;;;;1.90;1.23;;;20.10;99.90;;;;;;5060112;28;20041;-75
2022/10/28 11:18:16;;;;;;;1.73;0.88;;;20.10;99.90;;;;;;5058773;28;20040;-75
2022/10/28 11:20:54;;;;;;;0.68;0.63;;;20.20;99.90;;;;;;5053324;28;20053;-74
2022/10/28 11:23:28;;;;;;;0.82;0.65;;;20.20;99.90;;;;;;5053109;28;20092;-74
2022/10/28 11:26:01;;;;;;;0.35;0.30;;;20.50;99.90;;;;;;5056874;28;20049;-74
2022/10/28 11:28:57;;;;;;;0.70;0.47;;;20.70;99.90;;;;;;5038560;28;20049;-74
2022/10/28 11:31:47;;;;;;;0.95;0.68;;;21.00;87.50;;;;;;5055166;28;20045;-73
2022/10/28 11:34:45;;;;;;;0.55;0.55;;;21.20;99.90;;;;;;5061450;28;20100;-74
2022/10/28 11:37:17;;;;;;;0.43;0.43;;;21.40;99.90;;;;;;5052186;28;20107;-73
2022/10/28 11:39:57;;;;;;;0.88;0.73;;;21.70;55.30;;;;;;5053018;28;20048;-75
2022/10/28 11:42:37;;;;;;;1.30;0.88;;;21.60;22.10;;;;;;5047071;28;20053;-75
2022/10/28 11:45:30;;;;;;;15.90;1.20;;;21.50;99.90;;;;;;5041673;28;20041;-74
2022/10/28 11:48:22;;;;;;;3.33;2.10;;;21.60;99.90;;;;;;5043533;28;20037;-75
2022/10/28 11:51:13;;;;;;;0.25;0.25;;;21.40;1.00;;;;;;5035888;28;20533;-75
2022/10/28 11:54:05;;;;;;;6.30;2.35;;;21.30;99.90;;;;;;5016170;28;20049;-74
2022/10/28 11:57:04;;;;;;;2.38;1.45;;;21.30;63.00;;;;;;5027168;28;20080;-74
2022/10/28 11:59:39;;;;;;;7.18;0.93;;;21.30;99.90;;;;;;5043837;28;20055;-75
2022/10/28 12:02:32;;;;;;;1.13;0.82;;;21.40;99.90;;;;;;5059944;28;20120;-75
2022/10/28 12:05:20;;;;;;;0.98;0.85;;;21.40;84.40;;;;;;5064709;28;20064;-74
2022/10/28 12:08:03;;;;;;;1.80;0.75;;;21.50;1.00;;;;;;5064430;28;20056;-74
2022/10/28 12:10:57;;;;;;;1.17;0.93;;;21.40;62.90;;;;;;5061607;28;20056;-75
2022/10/28 12:13:28;;;;;;;0.22;0.22;;;21.40;70.60;;;;;;5063316;28;20057;-74
2022/10/28 12:15:59;;;;;;;1.58;0.75;;;21.40;99.90;;;;;;5065485;28;20080;-75
2022/10/28 12:18:58;;;;;;;2.40;1.70;;;21.50;33.10;;;;;;5063126;28;20053;-75
2022/10/28 12:21:39;;;;;;;0.65;0.60;;;21.40;88.20;;;;;;5053566;28;20049;-75
2022/10/28 12:24:18;;;;;;;1.65;1.10;;;21.40;99.90;;;;;;5044170;28;20586;-72
2022/10/28 12:26:57;;;;;;;1.13;0.88;;;21.40;99.90;;;;;;5044033;28;20068;-74
2022/10/28 12:29:28;;;;;;;3.38;1.98;;;21.40;99.90;;;;;;5042947;28;20045;-73
2022/10/28 12:32:03;;;;;;;5.25;1.55;;;21.30;99.90;;;;;;5054710;28;20056;-74
2022/10/28 12:34:37;;;;;;;1.10;0.90;;;21.40;99.90;;;;;;5048169;28;20575;-74
2022/10/28 12:37:11;;;;;;;0.40;0.40;;;21.40;9.50;;;;;;5063628;28;20049;-74
2022/10/28 12:40:12;;;;;;;1.85;1.30;;;21.30;99.90;;;;;;5062318;28;20052;-74
2022/10/28 12:43:04;;;;;;;0.40;0.40;;;21.20;99.90;;;;;;5031209;28;20049;-73
2022/10/28 12:45:31;;;;;;;0.28;0.28;;;21.20;99.90;;;;;;5036343;28;20057;-74
2022/10/28 12:48:03;;;;;;;1.00;0.93;;;21.10;99.90;;;;;;5041978;28;20081;-75
2022/10/28 12:50:55;;;;;;;1.70;0.77;;;21.10;99.90;;;;;;5038621;28;20049;-75
2022/10/28 12:53:33;;;;;;;12.63;2.45;;;21.10;99.90;;;;;;5041612;28;20606;-74
2022/10/28 12:56:01;;;;;;;2.08;0.98;;;21.10;99.90;;;;;;5042635;28;20084;-75
2022/10/28 12:58:43;;;;;;;2.67;1.40;;;21.10;99.90;;;;;;5041663;28;20069;-74
2022/10/28 13:01:18;;;;;;;1.55;0.90;;;21.00;99.90;;;;;;5040812;28;20037;-74
2022/10/28 13:03:44;;;;;;;1.80;1.20;;;21.00;99.90;;;;;;5042333;28;20068;-75
2022/10/28 13:06:27;;;;;;;4.57;0.80;;;21.00;99.90;;;;;;5041504;28;20045;-75
2022/10/28 13:09:05;;;;;;;1.20;0.90;;;21.00;99.90;;;;;;5041308;28;20042;-74
2022/10/28 13:11:43;;;;;;;0.77;0.77;;;21.00;99.90;;;;;;5038994;28;20063;-74
2022/10/28 13:14:40;;;;;;;1.60;1.35;;;20.90;99.90;;;;;;5038592;28;20046;-74
2022/10/28 13:17:15;;;;;;;6.10;1.73;;;20.90;99.90;;;;;;5012586;28;20069;-73